Time;durP1;ratioP1;P1;durP2;ratioP2;P2;SDS_P1;SDS_P2;PMS_P1;PMS_P2;Temp;Humidity;BMP_temperature;BMP_pressure;BME280_temperature;BME280_humidity;BME280_pressure;Samples;Min_cycle;Max_cycle;Signal;HPM_P1;HPM_P2
2022/09/20 00:00:44;;;;;;;;;;;18.60;55.90;;;;;;5077350;28;20325;-69
2022/09/20 00:03:11;;;;;;;;;;;18.60;55.90;;;;;;5077362;28;19965;-69
2022/09/20 00:05:37;;;;;;;;;;;18.60;55.90;;;;;;5095213;28;19920;-71
2022/09/20 00:08:04;;;;;;;;;;;18.60;55.90;;;;;;5076978;28;19927;-69
2022/09/20 00:10:30;;;;;;;;;;;18.60;55.90;;;;;;5095179;28;20019;-69
2022/09/20 00:12:56;;;;;;;;;;;18.60;55.90;;;;;;5095378;28;20003;-69
2022/09/20 00:15:21;;;;;;;;;;;18.60;56.00;;;;;;5076912;28;20450;-69
2022/09/20 00:17:47;;;;;;;;;;;18.60;55.90;;;;;;5095172;28;19920;-69
2022/09/20 00:20:12;;;;;;;;;;;18.60;56.00;;;;;;5094950;28;19927;-73
2022/09/20 00:22:38;;;;;;;;;;;18.60;56.00;;;;;;5076952;28;19927;-69
2022/09/20 00:25:04;;;;;;;;;;;18.60;56.00;;;;;;5094842;28;19931;-69
2022/09/20 00:27:30;;;;;;;;;;;18.60;56.00;;;;;;5094961;28;20340;-70
2022/09/20 00:29:56;;;;;;;;;;;18.60;56.00;;;;;;5094782;28;19927;-69
2022/09/20 00:32:21;;;;;;;;;;;18.50;56.00;;;;;;5076588;28;20014;-69
2022/09/20 00:35:18;;;;;;;;;;;18.60;56.00;;;;;;5076523;28;19965;-69
2022/09/20 00:37:33;;;;;;;;;;;18.50;55.90;;;;;;5094437;28;20314;-69
2022/09/20 00:39:59;;;;;;;;;;;18.50;56.00;;;;;;5076576;28;20362;-69
2022/09/20 00:42:26;;;;;;;;;;;18.60;56.00;;;;;;5094640;28;19974;-69
2022/09/20 00:44:54;;;;;;;;;;;18.50;55.90;;;;;;5076231;28;20386;-69
2022/09/20 00:50:04;;;;;;;;;;;18.50;55.90;;;;;;5110234;27;19912;-70
2022/09/20 00:52:35;;;;;;;;;;;18.60;55.90;;;;;;5108831;28;19966;-69
2022/09/20 00:55:02;;;;;;;;;;;18.50;56.70;;;;;;5109195;28;19959;-69
2022/09/20 00:57:33;;;;;;;;;;;18.50;56.00;;;;;;5110013;28;19926;-69
2022/09/20 01:00:00;;;;;;;;;;;18.50;56.00;;;;;;5108733;28;19920;-69
2022/09/20 01:02:28;;;;;;;;;;;18.50;56.00;;;;;;5109012;28;20291;-69
2022/09/20 01:04:55;;;;;;;;;;;18.60;56.00;;;;;;5108694;28;19920;-69
2022/09/20 01:07:21;;;;;;;;;;;18.50;56.00;;;;;;5109929;28;19923;-69
2022/09/20 01:09:47;;;;;;;;;;;18.50;56.00;;;;;;5109829;28;20363;-69
2022/09/20 01:12:14;;;;;;;;;;;18.50;56.00;;;;;;5108820;28;19970;-70
2022/09/20 01:14:42;;;;;;;;;;;18.50;56.00;;;;;;5108564;28;19976;-69
2022/09/20 01:17:09;;;;;;;;;;;18.40;55.90;;;;;;5108518;28;19920;-69
2022/09/20 01:22:21;;;;;;;;;;;18.50;56.00;;;;;;5110238;27;19912;-69
2022/09/20 01:24:51;;;;;;;;;;;18.40;56.00;;;;;;5110178;28;19956;-69
2022/09/20 01:30:07;;;;;;;;;;;18.40;56.00;;;;;;5110138;27;19912;-69
2022/09/20 01:32:43;;;;;;;;;;;18.40;56.00;;;;;;5088590;28;20371;-69
2022/09/20 01:35:10;;;;;;;;;;;18.40;56.00;;;;;;5106899;28;19967;-69
2022/09/20 01:37:42;;;;;;;;;;;18.40;56.00;;;;;;5109074;28;19950;-69
2022/09/20 01:40:11;;;;;;;;;;;18.40;56.00;;;;;;5108982;28;19965;-69
2022/09/20 01:42:42;;;;;;;;;;;18.40;56.00;;;;;;5108983;28;19924;-69
2022/09/20 01:50:45;;;;;;;;;;;18.40;56.00;;;;;;5127951;27;1853545;-69
2022/09/20 01:56:12;;;;;;;;;;;18.40;56.00;;;;;;5109908;27;19919;-71
2022/09/20 02:01:41;;;;;;;;;;;18.30;56.00;;;;;;5109909;27;19914;-71
2022/09/20 02:12:28;;;;;;;;;;;18.30;56.00;;;;;;5089805;28;19912;-69
2022/09/20 02:15:05;;;;;;;;;;;18.30;56.00;;;;;;5088298;28;20447;-69
2022/09/20 02:20:22;;;;;;;;;;;18.30;56.00;;;;;;5110168;27;19935;-69
2022/09/20 02:23:07;;;;;;;;;;;18.30;56.00;;;;;;5110114;28;19920;-69
2022/09/20 02:31:01;;;;;;;;;;;18.30;56.00;;;;;;5089778;28;19913;-69
2022/09/20 02:44:45;;;;;;;;;;;20.60;51.60;;;;;;5089913;28;20288;-70
2022/09/20 02:50:00;;;;;;;;;;;22.60;47.60;;;;;;5110142;27;19918;-73
2022/09/20 02:55:42;;;;;;;;;;;24.20;44.30;;;;;;5090051;28;19913;-69
2022/09/20 03:01:01;;;;;;;;;;;25.50;42.20;;;;;;5110129;27;19912;-69
2022/09/20 03:03:46;;;;;;;;;;;25.80;41.40;;;;;;5109288;28;19965;-69
2022/09/20 03:06:31;;;;;;;;;;;26.10;41.00;;;;;;5091249;28;19973;-69
2022/09/20 03:09:01;;;;;;;;;;;26.30;40.50;;;;;;5091561;28;19949;-69
2022/09/20 03:11:30;;;;;;;;;;;26.50;40.30;;;;;;5091758;28;20379;-69
2022/09/20 03:14:02;;;;;;;;;;;26.60;40.10;;;;;;5092152;28;19969;-69
2022/09/20 03:16:47;;;;;;;;;;;26.60;40.00;;;;;;5109905;28;20410;-69
2022/09/20 03:22:12;;;;;;;;;;;26.30;40.20;;;;;;5089803;28;20245;-69
2022/09/20 03:24:42;;;;;;;;;;;26.20;40.50;;;;;;5088381;28;19970;-69
2022/09/20 03:29:58;;;;;;;;;;;25.70;41.10;;;;;;5089810;28;19913;-69
2022/09/20 03:43:18;;;;;;;;;;;24.50;43.00;;;;;;5089864;28;20257;-73
2022/09/20 03:51:25;;;;;;;;;;;23.90;44.00;;;;;;5110246;27;19912;-69
2022/09/20 03:54:10;;;;;;;;;;;23.70;44.30;;;;;;5108709;28;19959;-69
2022/09/20 03:56:57;;;;;;;;;;;23.60;44.50;;;;;;5109028;28;19923;-69
2022/09/20 03:59:32;;;;;;;;;;;23.50;44.70;;;;;;5108417;28;20007;-73
2022/09/20 04:13:14;;;;;;;;;;;23.50;44.80;;;;;;5089945;28;19912;-69
2022/09/20 04:18:32;;;;;;;;;;;23.90;44.90;;;;;;5110140;27;19912;-71
2022/09/20 04:23:44;;;;;;;;;;;24.40;43.40;;;;;;5110071;27;19912;-69
2022/09/20 04:26:10;;;;;;;;;;;24.60;43.00;;;;;;5107237;28;20291;-69
2022/09/20 04:28:42;;;;;;;;;;;24.70;42.70;;;;;;5108979;28;19920;-69
2022/09/20 04:31:16;;;;;;;;;;;24.80;42.40;;;;;;5109953;28;19927;-69
2022/09/20 04:33:44;;;;;;;;;;;24.80;42.20;;;;;;5143299;27;20018;-69
2022/09/20 04:36:29;;;;;;;;;;;24.90;42.30;;;;;;5108646;28;19970;-70
2022/09/20 04:39:14;;;;;;;;;;;24.90;42.20;;;;;;5108686;28;19927;-74
2022/09/20 04:42:00;;;;;;;;;;;24.80;42.30;;;;;;5142594;27;19924;-70
2022/09/20 04:47:26;;;;;;;;;;;24.60;42.70;;;;;;5089908;28;19913;-69
2022/09/20 04:50:12;;;;;;;;;;;24.50;42.90;;;;;;5089357;28;19939;-69
2022/09/20 04:55:40;;;;;;;;;;;24.20;43.40;;;;;;5122987;27;20295;-69
2022/09/20 04:58:26;;;;;;;;;;;24.10;43.60;;;;;;5047968;28;19956;-69
2022/09/20 05:03:51;;;;;;;;;;;23.80;44.10;;;;;;5110296;27;19912;-69
2022/09/20 05:06:29;;;;;;;;;;;23.70;44.20;;;;;;5108691;28;20007;-69
2022/09/20 05:11:45;;;;;;;;;;;23.60;44.50;;;;;;5110106;27;19912;-73
2022/09/20 05:14:31;;;;;;;;;;;23.50;44.60;;;;;;5108948;28;19994;-69
2022/09/20 05:20:00;;;;;;;;;;;23.50;44.70;;;;;;5110316;27;19915;-70
2022/09/20 05:25:27;;;;;;;;;;;23.40;44.80;;;;;;5110235;27;19944;-70
2022/09/20 05:27:56;;;;;;;;;;;23.40;44.80;;;;;;5108772;28;19955;-70
2022/09/20 05:30:42;;;;;;;;;;;23.50;44.80;;;;;;5108338;28;20287;-71
2022/09/20 05:36:09;;;;;;;;;;;23.50;44.80;;;;;;5084016;28;20372;-67
2022/09/20 05:38:55;;;;;;;;;;;23.10;45.20;;;;;;5079490;28;19977;-66
2022/09/20 05:46:59;;;;;;;;;;;22.20;47.20;;;;;;5102447;27;19923;-66
2022/09/20 05:55:19;;;;;;;;;;;22.00;48.30;;;;;;5084264;27;19917;-66
2022/09/20 05:57:55;;;;;;;;;;;22.00;48.60;;;;;;5082443;28;20290;-66
2022/09/20 06:00:27;;;;;;;;;;;22.00;48.70;;;;;;5076248;28;19929;-66
2022/09/20 06:02:59;;;;;;;;;;;21.90;48.80;;;;;;5062804;28;19951;-65
2022/09/20 06:05:44;;;;;;;;;;;21.90;48.60;;;;;;5078947;28;20237;-66
2022/09/20 06:10:59;;;;;;;;;;;21.80;48.80;;;;;;5098309;27;20444;-67
2022/09/20 06:13:44;;;;;;;;;;;21.80;49.10;;;;;;5086728;28;19927;-67
2022/09/20 06:16:16;;;;;;;;;;;21.70;49.10;;;;;;5088669;28;19928;-67
2022/09/20 06:18:46;;;;;;;;;;;21.70;49.20;;;;;;5081400;28;20208;-69
2022/09/20 06:21:23;;;;;;;;;;;21.70;49.30;;;;;;5118286;27;20628;-69
2022/09/20 06:23:50;;;;;;;;;;;21.60;49.40;;;;;;5086760;28;20040;-69
2022/09/20 06:26:18;;;;;;;;;;;21.60;49.50;;;;;;5084436;28;19924;-67
2022/09/20 06:28:46;;;;;;;;;;;21.60;49.40;;;;;;5087147;28;19928;-65
2022/09/20 06:31:11;;;;;;;;;;;21.70;49.40;;;;;;5091876;28;19920;-64
2022/09/20 06:33:43;;;;;;;;;;;21.80;49.20;;;;;;5084272;28;19935;-67
2022/09/20 06:42:03;;;;;;;;;;;22.10;49.20;;;;;;5088240;28;19927;-69
2022/09/20 06:44:28;;;;;;;;;;;22.00;49.30;;;;;;5084309;28;19935;-67
2022/09/20 06:46:54;;;;;;;;;;;22.00;49.60;;;;;;5083410;28;19928;-72
2022/09/20 06:49:20;;;;;;;;;;;21.90;49.80;;;;;;5120008;27;19936;-71
2022/09/20 06:51:46;;;;;;;;;;;21.80;50.00;;;;;;5087083;28;19924;-69
2022/09/20 06:54:15;;;;;;;;;;;21.70;50.20;;;;;;5091744;28;20426;-68
2022/09/20 06:56:42;;;;;;;;;;;21.50;50.40;;;;;;5088532;28;19959;-72
2022/09/20 06:59:09;;;;;;;;;;;21.40;50.70;;;;;;5118301;27;19920;-70
2022/09/20 07:01:35;;;;;;;;;;;21.30;51.10;;;;;;5092326;28;19928;-71
2022/09/20 07:04:01;;;;;;;;;;;21.20;51.40;;;;;;5088795;28;19921;-71
2022/09/20 07:06:27;;;;;;;;;;;21.10;51.50;;;;;;5086960;28;19924;-70
2022/09/20 07:08:53;;;;;;;;;;;21.00;51.70;;;;;;5085530;28;20743;-70
2022/09/20 07:11:19;;;;;;;;;;;20.90;51.90;;;;;;5085618;28;20339;-69
2022/09/20 07:13:48;;;;;;;;;;;20.80;52.10;;;;;;5091215;28;20428;-69
2022/09/20 07:16:14;;;;;;;;;;;20.80;52.20;;;;;;5082758;28;20013;-69
2022/09/20 07:18:40;;;;;;;;;;;20.70;52.40;;;;;;5085320;28;19925;-69
2022/09/20 07:21:11;;;;;;;;;;;20.60;52.60;;;;;;5077426;28;20589;-69
2022/09/20 07:23:36;;;;;;;;;;;20.50;52.70;;;;;;5074485;28;19928;-69
2022/09/20 07:26:02;;;;;;;;;;;20.50;52.80;;;;;;5077541;28;19924;-69
2022/09/20 07:28:28;;;;;;;;;;;20.40;52.90;;;;;;5074247;28;19927;-69
2022/09/20 07:30:54;;;;;;;;;;;20.30;53.10;;;;;;5068917;28;19920;-69
2022/09/20 07:33:20;;;;;;;;;;;20.30;53.20;;;;;;5071534;28;19977;-69
2022/09/20 07:35:47;;;;;;;;;;;20.20;53.40;;;;;;5103825;27;20429;-69
2022/09/20 07:38:14;;;;;;;;;;;20.20;53.40;;;;;;5073764;28;20341;-71
2022/09/20 07:40:40;;;;;;;;;;;20.00;53.40;;;;;;5073027;28;19921;-70
2022/09/20 07:43:05;;;;;;;;;;;20.10;53.60;;;;;;5073954;28;19920;-69
2022/09/20 07:45:33;;;;;;;;;;;20.10;54.50;;;;;;5071728;28;19971;-69
2022/09/20 07:47:58;;;;;;;;;;;20.00;53.90;;;;;;5080263;28;19928;-69
2022/09/20 07:50:24;;;;;;;;;;;20.00;53.90;;;;;;5069870;28;20018;-69
2022/09/20 07:52:50;;;;;;;;;;;19.90;54.00;;;;;;5110418;27;19920;-69
2022/09/20 07:55:15;;;;;;;;;;;19.90;54.10;;;;;;5072172;28;20063;-67
2022/09/20 07:57:41;;;;;;;;;;;19.90;54.20;;;;;;5071956;28;19928;-74
2022/09/20 08:00:07;;;;;;;;;;;19.80;54.30;;;;;;5074524;28;19928;-72
2022/09/20 08:02:33;;;;;;;;;;;19.90;54.60;;;;;;5077120;28;20387;-68
2022/09/20 08:04:58;;;;;;;;;;;19.80;54.80;;;;;;5105320;27;19920;-68
2022/09/20 08:07:24;;;;;;;;;;;19.90;54.90;;;;;;5076459;28;19920;-72
2022/09/20 08:09:49;;;;;;;;;;;19.90;55.20;;;;;;5075890;28;20351;-68
2022/09/20 08:12:18;;;;;;;;;;;19.90;55.70;;;;;;5071216;28;19924;-67
2022/09/20 08:14:44;;;;;;;;;;;19.90;55.40;;;;;;5081002;28;19924;-68
2022/09/20 08:17:10;;;;;;;;;;;19.80;55.30;;;;;;5074072;28;19924;-66
2022/09/20 08:19:38;;;;;;;;;;;19.80;55.20;;;;;;5071267;28;20101;-67
2022/09/20 08:22:05;;;;;;;;;;;19.80;56.20;;;;;;5075120;28;19920;-67
2022/09/20 08:24:31;;;;;;;;;;;19.80;55.50;;;;;;5071295;28;19959;-67
2022/09/20 08:26:57;;;;;;;;;;;19.70;55.50;;;;;;5108265;27;20665;-67
2022/09/20 08:29:23;;;;;;;;;;;19.70;55.60;;;;;;5076411;28;19929;-67
2022/09/20 08:31:48;;;;;;;;;;;19.70;55.70;;;;;;5076027;28;19926;-67
2022/09/20 08:34:15;;;;;;;;;;;19.70;55.60;;;;;;5071501;28;19930;-68
2022/09/20 08:36:45;;;;;;;;;;;19.70;55.90;;;;;;5070574;28;19924;-68
2022/09/20 08:39:11;;;;;;;;;;;19.70;55.90;;;;;;5071690;28;19974;-67
2022/09/20 08:47:05;;;;;;;;;;;19.80;56.20;;;;;;5061385;28;19928;-67
2022/09/20 08:49:32;;;;;;;;;;;19.70;56.20;;;;;;5066767;28;20726;-67
2022/09/20 08:51:58;;;;;;;;;;;19.70;56.20;;;;;;5049854;28;19928;-69
2022/09/20 08:54:24;;;;;;;;;;;19.70;56.20;;;;;;5058938;28;20000;-72
2022/09/20 08:56:50;;;;;;;;;;;19.70;56.30;;;;;;5064695;28;20388;-69
2022/09/20 08:59:18;;;;;;;;;;;19.70;56.40;;;;;;5071255;28;19930;-72
2022/09/20 09:01:48;;;;;;;;;;;19.70;56.40;;;;;;5058351;28;19986;-70
2022/09/20 09:06:52;;;;;;;;;;;19.70;56.60;;;;;;5057558;28;19932;-66
2022/09/20 09:09:21;;;;;;;;;;;19.70;56.80;;;;;;5073844;28;20403;-69
2022/09/20 09:11:48;;;;;;;;;;;19.70;56.70;;;;;;5050263;28;19921;-64
2022/09/20 09:17:01;;;;;;;;;;;19.80;56.80;;;;;;5064662;28;19924;-68
2022/09/20 09:19:29;;;;;;;;;;;19.80;56.90;;;;;;5060212;28;19936;-66
2022/09/20 09:21:57;;;;;;;;;;;19.70;56.80;;;;;;5071908;28;19931;-67
2022/09/20 09:24:23;;;;;;;;;;;19.80;57.00;;;;;;5062388;28;20340;-66
2022/09/20 09:26:48;;;;;;;;;;;19.80;56.90;;;;;;5062857;28;19927;-66
2022/09/20 09:29:17;;;;;;;;;;;19.80;57.10;;;;;;5051834;28;20454;-65
2022/09/20 09:31:44;;;;;;;;;;;19.80;56.90;;;;;;5060804;28;19947;-65
2022/09/20 09:34:29;;;;;;;;;;;19.80;57.50;;;;;;5073708;28;20388;-65
2022/09/20 09:36:55;;;;;;;;;;;19.80;57.00;;;;;;5057127;28;20015;-66
2022/09/20 09:39:23;;;;;;;;;;;19.80;57.20;;;;;;5052306;28;19920;-66
2022/09/20 09:41:49;;;;;;;;;;;19.80;57.00;;;;;;5061980;28;19935;-65
2022/09/20 09:46:57;;;;;;;;;;;19.80;57.10;;;;;;5077912;27;19956;-65
2022/09/20 09:49:25;;;;;;;;;;;19.80;57.00;;;;;;5101024;28;19928;-64
2022/09/20 09:54:38;;;;;;;;;;;19.90;57.30;;;;;;5084072;27;19922;-66
2022/09/20 09:57:10;;;;;;;;;;;19.80;57.20;;;;;;5068983;28;19924;-66
2022/09/20 09:59:45;;;;;;;;;;;19.80;57.30;;;;;;5076315;28;19955;-65
2022/09/20 10:04:59;;;;;;;;;;;19.90;57.30;;;;;;5073123;27;19942;-67
2022/09/20 10:07:37;;;;;;;;;;;20.00;57.20;;;;;;5067497;28;19925;-74
2022/09/20 10:10:22;;;;;;;;;;;20.00;57.40;;;;;;5101835;27;19925;-66
2022/09/20 10:13:04;;;;;;;;;;;20.00;57.30;;;;;;5067634;28;20015;-67
2022/09/20 10:15:36;;;;;;;;;;;20.00;57.40;;;;;;5068506;28;19928;-69
2022/09/20 10:20:51;;;;;;;;;;;20.00;57.40;;;;;;5065998;28;20383;-66
2022/09/20 10:23:24;;;;;;;;;;;20.00;57.20;;;;;;5054884;28;20334;-67
2022/09/20 10:25:59;;;;;;;;;;;20.10;57.10;;;;;;5074765;28;19925;-66
2022/09/20 10:28:47;;;;;;;;;;;20.10;57.20;;;;;;5058495;28;20342;-66
2022/09/20 10:48:02;;;;;;;;;;;20.30;56.90;;;;;;5070309;27;20379;-69
2022/09/20 10:53:28;;;;;;;;;;;20.30;56.60;;;;;;5058485;28;19943;-66
2022/09/20 10:58:47;;;;;;;;;;;20.20;57.00;;;;;;5089795;27;19916;-67
2022/09/20 11:01:19;;;;;;;;;;;20.20;56.80;;;;;;5076234;28;20019;-67
2022/09/20 11:04:05;;;;;;;;;;;20.20;57.00;;;;;;5078163;28;19928;-68
2022/09/20 11:09:14;;;;;;;;;;;20.10;57.10;;;;;;5089802;27;19920;-68
2022/09/20 11:11:42;;;;;;;;;;;20.10;57.10;;;;;;5096282;28;19928;-71
2022/09/20 11:14:31;;;;;;;;;;;20.10;57.40;;;;;;5090376;28;19920;-70
2022/09/20 11:17:01;;;;;;;;;;;20.10;57.60;;;;;;5078955;28;19930;-68
2022/09/20 11:19:47;;;;;;;;;;;20.00;57.70;;;;;;5121122;27;20387;-69
2022/09/20 11:22:16;;;;;;;;;;;20.00;57.80;;;;;;5088471;28;19928;-67
2022/09/20 11:25:07;;;;;;;;;;;20.00;57.80;;;;;;5119942;27;20022;-68
2022/09/20 11:27:36;;;;;;;;;;;20.00;58.00;;;;;;5088533;28;19936;-67
2022/09/20 11:30:04;;;;;;;;;;;19.90;58.10;;;;;;5089598;28;20397;-67
2022/09/20 11:37:56;;;;;;;;;;;19.90;58.10;;;;;;5082264;27;19917;-68
2022/09/20 11:40:39;;;;;;;;;;;19.80;58.30;;;;;;5081877;28;20500;-68
2022/09/20 11:43:06;;;;;;;;;;;19.80;58.40;;;;;;5112066;28;19928;-70
2022/09/20 11:45:32;;;;;;;;;;;19.80;58.30;;;;;;5108496;28;19928;-71
2022/09/20 11:48:03;;;;;;;;;;;19.90;58.90;;;;;;5079537;28;20455;-68
2022/09/20 11:53:35;;;;;;;;;;;19.80;58.40;;;;;;5087792;27;19952;-68
2022/09/20 11:56:05;;;;;;;;;;;19.80;58.60;;;;;;5073053;28;19924;-67
2022/09/20 11:58:42;;;;;;;;;;;19.80;58.50;;;;;;5069860;28;19950;-67
2022/09/20 12:01:11;;;;;;;;;;;19.80;58.50;;;;;;5068180;28;20343;-68
2022/09/20 12:03:37;;;;;;;;;;;19.80;58.70;;;;;;5071975;28;20390;-67
2022/09/20 12:06:05;;;;;;;;;;;19.80;58.90;;;;;;5100418;28;19931;-67
2022/09/20 12:11:13;;;;;;;;;;;19.90;59.20;;;;;;5108321;27;1867997;-68
2022/09/20 12:13:40;;;;;;;;;;;19.90;59.50;;;;;;5176057;27;19971;-69
2022/09/20 12:16:11;;;;;;;;;;;19.90;59.60;;;;;;5152541;27;20477;-68
2022/09/20 12:21:53;;;;;;;;;;;19.90;59.80;;;;;;5053702;27;19917;-67
2022/09/20 12:24:20;;;;;;;;;;;20.00;59.80;;;;;;5054785;28;20019;-75
2022/09/20 12:26:46;;;;;;;;;;;20.00;60.00;;;;;;5055279;28;19925;-68
2022/09/20 12:32:26;;;;;;;;;;;20.00;59.90;;;;;;5066564;28;19927;-69
2022/09/20 12:34:52;;;;;;;;;;;20.10;60.30;;;;;;5076527;28;19928;-68
2022/09/20 12:37:22;;;;;;;;;;;20.10;60.10;;;;;;5062069;28;19925;-69
2022/09/20 12:39:50;;;;;;;;;;;20.10;60.20;;;;;;5068662;28;19931;-69
2022/09/20 12:45:01;;;;;;;;;;;20.20;60.20;;;;;;5052865;28;19921;-70
2022/09/20 12:47:32;;;;;;;;;;;20.10;60.10;;;;;;5063012;28;20023;-71
2022/09/20 13:03:47;;;;;;;;;;;20.10;60.60;;;;;;5062268;28;19920;-67
2022/09/20 13:11:43;;;;;;;;;;;20.20;60.20;;;;;;5088765;27;20336;-68
2022/09/20 13:17:08;;;;;;;;;;;20.20;60.10;;;;;;5081533;28;20408;-69
2022/09/20 13:19:36;;;;;;;;;;;20.30;60.00;;;;;;5079971;28;19955;-68
2022/09/20 13:22:04;;;;;;;;;;;20.30;60.00;;;;;;5069603;28;19921;-71
2022/09/20 13:24:31;;;;;;;;;;;20.30;59.90;;;;;;5039926;28;19970;-67
2022/09/20 13:27:01;;;;;;;;;;;20.30;59.90;;;;;;5041227;28;20078;-68
2022/09/20 13:29:43;;;;;;;;;;;20.30;59.80;;;;;;5059138;28;19924;-68
2022/09/20 13:37:50;;;;;;;;;;;20.20;59.10;;;;;;5086392;27;19949;-68
2022/09/20 13:43:01;;;;;;;;;;;20.10;58.70;;;;;;5088103;27;19923;-67
2022/09/20 13:45:27;;;;;;;;;;;20.10;58.30;;;;;;5078286;28;19925;-66
2022/09/20 13:47:55;;;;;;;;;;;20.10;58.30;;;;;;5062687;28;19929;-67
2022/09/20 13:53:02;;;;;;;;;;;20.10;58.10;;;;;;5086330;27;19917;-68
2022/09/20 13:55:33;;;;;;;;;;;20.10;58.30;;;;;;5110558;27;20492;-68
2022/09/20 13:58:01;;;;;;;;;;;20.10;58.00;;;;;;5106163;27;19924;-70
2022/09/20 14:00:28;;;;;;;;;;;20.20;58.10;;;;;;5075387;28;20013;-69
2022/09/20 14:02:54;;;;;;;;;;;20.10;58.00;;;;;;5077125;28;19932;-69
2022/09/20 14:05:22;;;;;;;;;;;20.10;58.00;;;;;;5080751;28;19982;-70
2022/09/20 14:07:48;;;;;;;;;;;20.10;58.00;;;;;;5078505;28;20017;-70
2022/09/20 14:10:34;;;;;;;;;;;20.10;58.00;;;;;;5075505;28;20368;-69
2022/09/20 14:13:01;;;;;;;;;;;20.10;58.00;;;;;;5078008;28;19982;-70
2022/09/20 14:15:30;;;;;;;;;;;20.10;58.00;;;;;;5107756;27;19928;-70
2022/09/20 14:17:56;;;;;;;;;;;20.00;58.00;;;;;;5079802;28;20013;-70
2022/09/20 14:20:22;;;;;;;;;;;20.10;58.00;;;;;;5078210;28;19989;-69
2022/09/20 14:22:48;;;;;;;;;;;20.00;57.90;;;;;;5082418;28;19921;-69
2022/09/20 14:28:12;;;;;;;;;;;20.00;58.00;;;;;;5105977;27;1853570;-69
2022/09/20 14:30:38;;;;;;;;;;;20.00;58.10;;;;;;5141974;27;20018;-69
2022/09/20 14:33:06;;;;;;;;;;;20.00;58.10;;;;;;5135464;27;20030;-69
2022/09/20 14:35:31;;;;;;;;;;;19.90;58.10;;;;;;5135836;27;19930;-69
2022/09/20 14:37:59;;;;;;;;;;;19.90;58.10;;;;;;5140866;27;19922;-69
2022/09/20 14:40:26;;;;;;;;;;;19.90;58.10;;;;;;5139437;27;19918;-69
2022/09/20 14:42:53;;;;;;;;;;;19.90;58.20;;;;;;5141097;27;20599;-69
2022/09/20 14:45:24;;;;;;;;;;;19.90;58.20;;;;;;5139948;27;20386;-69
2022/09/20 14:48:07;;;;;;;;;;;19.90;58.20;;;;;;5136107;27;19969;-69
2022/09/20 14:53:20;;;;;;;;;;;19.80;58.20;;;;;;5097345;27;19920;-68
2022/09/20 14:55:54;;;;;;;;;;;19.80;58.20;;;;;;5097003;28;19920;-69
2022/09/20 14:58:20;;;;;;;;;;;19.80;58.20;;;;;;5091630;28;19920;-68
2022/09/20 15:03:29;;;;;;;;;;;19.80;58.20;;;;;;5093955;27;19944;-69
2022/09/20 15:05:55;;;;;;;;;;;19.80;58.20;;;;;;5073073;28;19940;-68
2022/09/20 15:08:22;;;;;;;;;;;19.80;58.20;;;;;;5071739;28;19966;-68
2022/09/20 15:10:47;;;;;;;;;;;19.80;58.20;;;;;;5077175;28;19950;-68
2022/09/20 15:13:13;;;;;;;;;;;19.80;58.20;;;;;;5110389;28;19924;-69
2022/09/20 15:15:40;;;;;;;;;;;19.80;58.20;;;;;;5112351;28;19921;-67
2022/09/20 15:18:16;;;;;;;;;;;19.70;58.20;;;;;;5107840;28;19921;-69
2022/09/20 15:20:42;;;;;;;;;;;19.80;58.20;;;;;;5081941;28;19920;-68
2022/09/20 15:23:07;;;;;;;;;;;19.80;58.20;;;;;;5083495;28;20027;-68
2022/09/20 15:25:33;;;;;;;;;;;19.70;58.20;;;;;;5080292;28;20438;-68
2022/09/20 15:27:59;;;;;;;;;;;19.80;58.20;;;;;;5083957;28;19924;-68
2022/09/20 15:30:25;;;;;;;;;;;19.80;58.20;;;;;;5083070;28;19928;-68
2022/09/20 15:32:51;;;;;;;;;;;19.70;58.20;;;;;;5085204;28;19948;-68
2022/09/20 15:35:17;;;;;;;;;;;19.80;58.20;;;;;;5117342;28;19927;-68
2022/09/20 15:37:43;;;;;;;;;;;19.70;58.20;;;;;;5084991;28;19924;-68
2022/09/20 15:40:10;;;;;;;;;;;19.70;58.10;;;;;;5085177;28;19920;-68
2022/09/20 15:42:40;;;;;;;;;;;19.80;58.20;;;;;;5084044;28;19924;-68
2022/09/20 15:45:07;;;;;;;;;;;19.80;58.20;;;;;;5082417;28;19927;-69
2022/09/20 15:47:37;;;;;;;;;;;19.70;58.00;;;;;;5085221;28;19920;-70
2022/09/20 15:50:06;;;;;;;;;;;19.80;58.10;;;;;;5086416;28;19921;-68
2022/09/20 15:52:33;;;;;;;;;;;19.80;58.00;;;;;;5084914;28;20380;-69
2022/09/20 15:54:59;;;;;;;;;;;19.80;57.90;;;;;;5084939;28;20376;-68
2022/09/20 15:57:25;;;;;;;;;;;19.80;57.80;;;;;;5084844;28;20398;-69
2022/09/20 15:59:51;;;;;;;;;;;19.80;57.70;;;;;;5083671;28;20019;-69
2022/09/20 16:02:17;;;;;;;;;;;19.80;57.70;;;;;;5082916;28;20023;-69
2022/09/20 16:04:42;;;;;;;;;;;19.90;57.80;;;;;;5084635;28;19920;-69
2022/09/20 16:07:09;;;;;;;;;;;19.80;57.70;;;;;;5083180;28;19932;-69
2022/09/20 16:09:36;;;;;;;;;;;19.80;57.70;;;;;;5084539;28;19934;-69
2022/09/20 16:12:03;;;;;;;;;;;19.70;57.10;;;;;;5084306;28;20023;-69
2022/09/20 16:14:29;;;;;;;;;;;19.80;57.00;;;;;;5073420;28;19920;-69
2022/09/20 16:16:54;;;;;;;;;;;19.90;56.90;;;;;;5072057;28;20012;-69
2022/09/20 16:19:20;;;;;;;;;;;19.80;56.70;;;;;;5073117;28;20372;-69
2022/09/20 16:24:28;;;;;;;;;;;19.80;56.30;;;;;;5087651;28;20505;-68
2022/09/20 16:26:53;;;;;;;;;;;19.80;56.20;;;;;;5067507;28;19920;-68
2022/09/20 16:29:20;;;;;;;;;;;19.80;56.20;;;;;;5083617;28;20376;-68
2022/09/20 16:31:48;;;;;;;;;;;19.90;56.30;;;;;;5070097;28;19927;-68
2022/09/20 16:34:24;;;;;;;;;;;19.90;56.20;;;;;;5066431;28;19920;-68
2022/09/20 16:36:50;;;;;;;;;;;19.90;56.10;;;;;;5064809;28;19921;-68
2022/09/20 16:39:17;;;;;;;;;;;19.90;56.10;;;;;;5072562;28;19967;-69
2022/09/20 16:41:44;;;;;;;;;;;19.90;56.00;;;;;;5076152;28;19948;-67
2022/09/20 16:44:10;;;;;;;;;;;19.90;56.10;;;;;;5072094;28;19952;-80
2022/09/20 16:46:36;;;;;;;;;;;19.80;56.10;;;;;;5067477;28;19951;-67
2022/09/20 16:49:03;;;;;;;;;;;19.80;56.10;;;;;;5068897;28;19921;-68
2022/09/20 16:51:31;;;;;;;;;;;19.80;56.20;;;;;;5065488;28;19921;-68
2022/09/20 16:53:57;;;;;;;;;;;19.80;56.20;;;;;;5066093;28;19960;-65
2022/09/20 16:56:24;;;;;;;;;;;19.80;56.30;;;;;;5070192;28;19971;-65
2022/09/20 16:58:51;;;;;;;;;;;19.70;56.30;;;;;;5063600;28;19928;-66
2022/09/20 17:01:16;;;;;;;;;;;19.80;56.40;;;;;;5064580;28;19920;-66
2022/09/20 17:03:43;;;;;;;;;;;19.80;56.40;;;;;;5066321;28;19932;-66
2022/09/20 17:06:09;;;;;;;;;;;19.70;56.40;;;;;;5067901;28;20277;-68
2022/09/20 17:08:38;;;;;;;;;;;19.70;56.50;;;;;;5067174;28;20335;-69
2022/09/20 17:11:07;;;;;;;;;;;19.70;56.70;;;;;;5066620;28;20288;-67
2022/09/20 17:13:33;;;;;;;;;;;19.70;56.80;;;;;;5065845;28;19981;-67
2022/09/20 17:16:00;;;;;;;;;;;19.70;56.90;;;;;;5066583;28;19921;-67
2022/09/20 17:18:25;;;;;;;;;;;19.70;57.00;;;;;;5065529;28;19927;-66
2022/09/20 17:20:51;;;;;;;;;;;19.70;57.10;;;;;;5067287;28;20363;-73
2022/09/20 17:23:16;;;;;;;;;;;19.70;57.30;;;;;;5082348;28;19924;-68
2022/09/20 17:25:44;;;;;;;;;;;19.70;57.20;;;;;;5080320;28;19920;-66
2022/09/20 17:28:09;;;;;;;;;;;19.60;57.20;;;;;;5084072;28;20007;-73
2022/09/20 17:30:35;;;;;;;;;;;19.60;57.20;;;;;;5068397;28;20031;-67
2022/09/20 17:33:00;;;;;;;;;;;19.60;57.20;;;;;;5065509;28;20386;-68
2022/09/20 17:35:28;;;;;;;;;;;19.60;57.30;;;;;;5058592;28;20323;-67
2022/09/20 17:37:53;;;;;;;;;;;19.60;57.40;;;;;;5066222;28;19925;-70
2022/09/20 17:40:19;;;;;;;;;;;19.60;57.40;;;;;;5062400;28;19974;-69
2022/09/20 17:42:45;;;;;;;;;;;19.60;57.40;;;;;;5051094;28;19925;-70
2022/09/20 17:45:11;;;;;;;;;;;19.60;57.50;;;;;;5051974;28;19921;-70
2022/09/20 17:47:40;;;;;;;;;;;19.50;57.40;;;;;;5052181;28;20012;-69
2022/09/20 17:50:06;;;;;;;;;;;19.50;57.50;;;;;;5050620;28;20298;-70
2022/09/20 17:52:32;;;;;;;;;;;19.50;57.50;;;;;;5051838;28;19944;-69
2022/09/20 17:54:57;;;;;;;;;;;19.50;57.50;;;;;;5050695;28;19920;-69
2022/09/20 17:57:23;;;;;;;;;;;19.50;57.50;;;;;;5058111;28;19920;-69
2022/09/20 17:59:48;;;;;;;;;;;19.50;57.60;;;;;;5073330;28;19935;-69
2022/09/20 18:02:14;;;;;;;;;;;19.50;57.80;;;;;;5069132;28;20397;-69
2022/09/20 18:04:41;;;;;;;;;;;19.40;57.90;;;;;;5071828;28;19946;-70
2022/09/20 18:07:07;;;;;;;;;;;19.40;57.90;;;;;;5055004;28;19921;-70
2022/09/20 18:09:33;;;;;;;;;;;19.40;57.90;;;;;;5050016;28;19928;-70
2022/09/20 18:11:58;;;;;;;;;;;19.40;57.90;;;;;;5051821;28;20448;-70
2022/09/20 18:14:26;;;;;;;;;;;19.40;57.90;;;;;;5051165;28;20063;-70
2022/09/20 18:16:54;;;;;;;;;;;19.40;58.00;;;;;;5055794;28;20269;-77
2022/09/20 18:19:21;;;;;;;;;;;19.40;58.00;;;;;;5072886;28;20014;-71
2022/09/20 18:21:47;;;;;;;;;;;19.40;58.20;;;;;;5070808;28;19921;-68
2022/09/20 18:24:12;;;;;;;;;;;19.40;58.40;;;;;;5087413;28;20376;-69
2022/09/20 18:26:38;;;;;;;;;;;19.40;58.40;;;;;;5071493;28;19932;-68
2022/09/20 18:34:32;;;;;;;;;;;19.40;58.40;;;;;;5106623;27;19916;-67
2022/09/20 18:36:58;;;;;;;;;;;19.40;58.40;;;;;;5091385;28;20371;-67
2022/09/20 18:39:26;;;;;;;;;;;19.40;58.40;;;;;;5091757;28;19920;-67